PWSweather.com
Personal Weather Stations
Station Observations
DEKREUPEL
Wsv De Kreupel, AndijkNL 1619 JV

Wsv De KreupelAndijkNL 1619 JV

Lat: 52.7417364, Lon: 5.1809356

Elevation: 33

Station Type: Rainwise MKiii LR

High Low Average
Temperature 67.3°F19.6°C 59.0°F15.0°C 64.2°F17.9°C
Dew Point 96.1°F35.6°C 86.8°F30.4°C 92.6°F33.7°C
Winds 21.4 mph 34.4 kmh 1.6 mph 2.6 kmh 11.0 mph W17.7 kmh W
Wind Gusts 24.4 mph39.3 kmh 5.0 mph8.0 kmh 12.0 mph19.3 kmh
Humidity - - -
Pressure 30.12 in1020.0 mb 29.96 in1014.6 mb -
Precipitation 0.13 in3.3 mm - -
Hour Temp Dew Point Humidity Winds Wind Gusts Pressure Precip Precip Rate Daily Precip Total
12:04 AM 60.7°F15.9°C 88.7°F31.5°C - 5.7 mph WSW9.2 kmh WSW 7.9 mph12.7 kmh 30.03 in1016.9 mb 0.00 in0.0 mm 0.00 in0.0 mm 0.00 in0.0 mm
12:09 AM 60.8°F16.0°C 88.8°F31.6°C - 5.7 mph SW9.2 kmh SW 7.0 mph11.3 kmh 30.03 in1016.9 mb 0.00 in0.0 mm 0.00 in0.0 mm 0.00 in0.0 mm
12:15 AM 61.0°F16.1°C 89.1°F31.7°C - 5.9 mph WSW9.5 kmh WSW 7.6 mph12.2 kmh 30.03 in1016.9 mb 0.00 in0.0 mm 0.00 in0.0 mm 0.00 in0.0 mm
12:19 AM 61.0°F16.1°C 88.9°F31.6°C - 6.4 mph SW10.3 kmh SW 7.9 mph12.7 kmh 30.02 in1016.6 mb 0.00 in0.0 mm 0.00 in0.0 mm 0.00 in0.0 mm
12:24 AM 61.0°F16.1°C 89.1°F31.7°C - 5.9 mph SW9.5 kmh SW 7.4 mph11.9 kmh 30.02 in1016.6 mb 0.00 in0.0 mm 0.00 in0.0 mm 0.00 in0.0 mm
12:29 AM 61.0°F16.1°C 88.9°F31.6°C - 5.4 mph SW8.7 kmh SW 7.3 mph11.7 kmh 30.02 in1016.6 mb 0.00 in0.0 mm 0.00 in0.0 mm 0.00 in0.0 mm
12:34 AM 61.0°F16.1°C 89.1°F31.7°C - 5.0 mph SW8.0 kmh SW 6.4 mph10.3 kmh 30.03 in1016.9 mb 0.00 in0.0 mm 0.00 in0.0 mm 0.00 in0.0 mm
12:39 AM 61.0°F16.1°C 89.1°F31.7°C - 5.4 mph SW8.7 kmh SW 6.7 mph10.8 kmh 30.02 in1016.6 mb 0.00 in0.0 mm 0.00 in0.0 mm 0.00 in0.0 mm
12:44 AM 61.1°F16.2°C 89.2°F31.8°C - 5.1 mph SW8.2 kmh SW 7.9 mph12.7 kmh 30.02 in1016.6 mb 0.00 in0.0 mm 0.00 in0.0 mm 0.00 in0.0 mm
12:49 AM 61.1°F16.2°C 89.2°F31.8°C - 5.5 mph SW8.9 kmh SW 7.6 mph12.2 kmh 30.02 in1016.6 mb 0.00 in0.0 mm 0.00 in0.0 mm 0.00 in0.0 mm
12:54 AM 61.1°F16.2°C 89.1°F31.7°C - 5.5 mph SW8.9 kmh SW 7.1 mph11.4 kmh 30.02 in1016.6 mb 0.00 in0.0 mm 0.00 in0.0 mm 0.00 in0.0 mm
12:59 AM 61.2°F16.2°C 89.3°F31.8°C - 5.9 mph SW9.5 kmh SW 7.4 mph11.9 kmh 30.02 in1016.6 mb 0.00 in0.0 mm 0.00 in0.0 mm 0.00 in0.0 mm
01:04 AM 61.2°F16.2°C 89.3°F31.8°C - 6.0 mph WSW9.7 kmh WSW 8.0 mph12.9 kmh 30.02 in1016.6 mb 0.00 in0.0 mm 0.00 in0.0 mm 0.00 in0.0 mm
01:09 AM 61.3°F16.3°C 89.4°F31.9°C - 6.6 mph SW10.6 kmh SW 8.1 mph13.0 kmh 30.01 in1016.3 mb 0.00 in0.0 mm 0.00 in0.0 mm 0.00 in0.0 mm
01:14 AM 61.3°F16.3°C 89.4°F31.9°C - 5.9 mph SW9.5 kmh SW 7.0 mph11.3 kmh 30.02 in1016.6 mb 0.00 in0.0 mm 0.00 in0.0 mm 0.00 in0.0 mm
01:19 AM 61.3°F16.3°C 89.3°F31.8°C - 4.6 mph SSW7.4 kmh SSW 6.0 mph9.7 kmh 30.02 in1016.6 mb 0.00 in0.0 mm 0.00 in0.0 mm 0.00 in0.0 mm
01:24 AM 61.3°F16.3°C 89.3°F31.8°C - 4.8 mph SW7.7 kmh SW 6.6 mph10.6 kmh 30.02 in1016.6 mb 0.00 in0.0 mm 0.00 in0.0 mm 0.00 in0.0 mm
01:30 AM 61.3°F16.3°C 89.4°F31.9°C - 4.5 mph SW7.2 kmh SW 5.8 mph9.3 kmh 30.01 in1016.3 mb 0.00 in0.0 mm 0.00 in0.0 mm 0.00 in0.0 mm
01:34 AM 61.5°F16.4°C 89.5°F31.9°C - 5.3 mph SW8.5 kmh SW 7.2 mph11.6 kmh 30.02 in1016.6 mb 0.00 in0.0 mm 0.00 in0.0 mm 0.00 in0.0 mm
01:39 AM 61.6°F16.4°C 89.7°F32.1°C - 5.4 mph SW8.7 kmh SW 7.5 mph12.1 kmh 30.01 in1016.3 mb 0.00 in0.0 mm 0.00 in0.0 mm 0.00 in0.0 mm
01:44 AM 61.7°F16.5°C 89.9°F32.2°C - 5.1 mph SSW8.2 kmh SSW 6.8 mph10.9 kmh 30.02 in1016.6 mb 0.00 in0.0 mm 0.00 in0.0 mm 0.00 in0.0 mm
01:49 AM 61.7°F16.5°C 89.9°F32.2°C - 5.9 mph SSW9.5 kmh SSW 8.0 mph12.9 kmh 30.02 in1016.6 mb 0.00 in0.0 mm 0.00 in0.0 mm 0.00 in0.0 mm
01:54 AM 61.7°F16.5°C 89.9°F32.2°C - 5.0 mph SW8.0 kmh SW 6.3 mph10.1 kmh 30.02 in1016.6 mb 0.00 in0.0 mm 0.00 in0.0 mm 0.00 in0.0 mm
01:59 AM 62.0°F16.7°C 90.2°F32.3°C - 5.6 mph SW9.0 kmh SW 7.3 mph11.7 kmh 30.01 in1016.3 mb 0.00 in0.0 mm 0.00 in0.0 mm 0.00 in0.0 mm
02:04 AM 62.2°F16.8°C 90.4°F32.4°C - 4.7 mph SSW7.6 kmh SSW 6.3 mph10.1 kmh 30.01 in1016.3 mb 0.00 in0.0 mm 0.00 in0.0 mm 0.00 in0.0 mm
02:09 AM 62.3°F16.8°C 90.5°F32.5°C - 4.6 mph SW7.4 kmh SW 6.2 mph10.0 kmh 30.01 in1016.3 mb 0.00 in0.0 mm 0.00 in0.0 mm 0.00 in0.0 mm
02:14 AM 62.6°F17.0°C 90.9°F32.7°C - 5.0 mph SSW8.0 kmh SSW 6.0 mph9.7 kmh 30.01 in1016.3 mb 0.00 in0.0 mm 0.00 in0.0 mm 0.00 in0.0 mm
02:19 AM 62.6°F17.0°C 90.9°F32.7°C - 4.5 mph SW7.2 kmh SW 6.1 mph9.8 kmh 30.01 in1016.3 mb 0.00 in0.0 mm 0.00 in0.0 mm 0.00 in0.0 mm
02:24 AM 62.6°F17.0°C 90.9°F32.7°C - 5.6 mph SW9.0 kmh SW 7.3 mph11.7 kmh 30.00 in1015.9 mb 0.00 in0.0 mm 0.00 in0.0 mm 0.00 in0.0 mm
02:29 AM 62.7°F17.1°C 91.0°F32.8°C - 6.4 mph SW10.3 kmh SW 8.4 mph13.5 kmh 30.00 in1015.9 mb 0.00 in0.0 mm 0.00 in0.0 mm 0.00 in0.0 mm
02:34 AM 62.7°F17.1°C 90.9°F32.7°C - 5.8 mph SW9.3 kmh SW 8.0 mph12.9 kmh 30.00 in1015.9 mb 0.00 in0.0 mm 0.00 in0.0 mm 0.00 in0.0 mm
02:39 AM 62.8°F17.1°C 91.1°F32.8°C - 5.2 mph SSW8.4 kmh SSW 6.8 mph10.9 kmh 30.00 in1015.9 mb 0.00 in0.0 mm 0.00 in0.0 mm 0.00 in0.0 mm
02:44 AM 62.8°F17.1°C 91.1°F32.8°C - 5.1 mph SW8.2 kmh SW 6.8 mph10.9 kmh 30.00 in1015.9 mb 0.00 in0.0 mm 0.00 in0.0 mm 0.00 in0.0 mm
02:49 AM 62.9°F17.2°C 91.2°F32.9°C - 6.0 mph SW9.7 kmh SW 7.7 mph12.4 kmh 30.00 in1015.9 mb 0.00 in0.0 mm 0.00 in0.0 mm 0.00 in0.0 mm
02:54 AM 63.0°F17.2°C 91.3°F32.9°C - 5.0 mph SSW8.0 kmh SSW 6.6 mph10.6 kmh 30.00 in1015.9 mb 0.00 in0.0 mm 0.00 in0.0 mm 0.00 in0.0 mm
02:59 AM 63.1°F17.3°C 91.4°F33.0°C - 5.6 mph SW9.0 kmh SW 7.0 mph11.3 kmh 30.00 in1015.9 mb 0.00 in0.0 mm 0.00 in0.0 mm 0.00 in0.0 mm
03:04 AM 63.1°F17.3°C 91.4°F33.0°C - 5.0 mph SW8.0 kmh SW 6.8 mph10.9 kmh 30.00 in1015.9 mb 0.00 in0.0 mm 0.00 in0.0 mm 0.00 in0.0 mm
03:09 AM 63.2°F17.3°C 91.5°F33.1°C - 4.7 mph SSW7.6 kmh SSW 6.4 mph10.3 kmh 30.00 in1015.9 mb 0.00 in0.0 mm 0.00 in0.0 mm 0.00 in0.0 mm
03:14 AM 63.1°F17.3°C 91.4°F33.0°C - 5.6 mph SW9.0 kmh SW 7.0 mph11.3 kmh 30.00 in1015.9 mb 0.00 in0.0 mm 0.00 in0.0 mm 0.00 in0.0 mm
03:19 AM 63.2°F17.3°C 91.5°F33.1°C - 4.5 mph SSW7.2 kmh SSW 5.9 mph9.5 kmh 30.00 in1015.9 mb 0.00 in0.0 mm 0.00 in0.0 mm 0.00 in0.0 mm
03:24 AM 63.2°F17.3°C 91.5°F33.1°C - 5.6 mph SW9.0 kmh SW 7.9 mph12.7 kmh 29.99 in1015.6 mb 0.00 in0.0 mm 0.00 in0.0 mm 0.00 in0.0 mm
03:29 AM 63.2°F17.3°C 91.4°F33.0°C - 5.0 mph SW8.0 kmh SW 6.4 mph10.3 kmh 29.99 in1015.6 mb 0.00 in0.0 mm 0.00 in0.0 mm 0.00 in0.0 mm
03:34 AM 63.3°F17.4°C 91.7°F33.2°C - 4.7 mph SW7.6 kmh SW 5.7 mph9.2 kmh 29.99 in1015.6 mb 0.00 in0.0 mm 0.00 in0.0 mm 0.01 in0.3 mm
03:39 AM 63.3°F17.4°C 91.5°F33.1°C - 4.8 mph SW7.7 kmh SW 6.1 mph9.8 kmh 29.99 in1015.6 mb 0.00 in0.0 mm 0.00 in0.0 mm 0.01 in0.3 mm
03:44 AM 63.3°F17.4°C 91.7°F33.2°C - 4.0 mph WSW6.4 kmh WSW 5.3 mph8.5 kmh 29.99 in1015.6 mb 0.00 in0.0 mm 0.00 in0.0 mm 0.01 in0.3 mm
03:49 AM 63.5°F17.5°C 91.9°F33.3°C - 4.0 mph WSW6.4 kmh WSW 5.1 mph8.2 kmh 29.99 in1015.6 mb 0.00 in0.0 mm 0.00 in0.0 mm 0.02 in0.5 mm
03:54 AM 63.5°F17.5°C 91.9°F33.3°C - 4.1 mph WSW6.6 kmh WSW 5.0 mph8.0 kmh 29.98 in1015.2 mb 0.00 in0.0 mm 0.00 in0.0 mm 0.02 in0.5 mm
03:59 AM 63.6°F17.6°C 92.0°F33.3°C - 5.4 mph WSW8.7 kmh WSW 5.7 mph9.2 kmh 29.98 in1015.2 mb 0.00 in0.0 mm 0.00 in0.0 mm 0.02 in0.5 mm
04:04 AM 63.5°F17.5°C 91.8°F33.2°C - 5.8 mph WSW9.3 kmh WSW 6.5 mph10.5 kmh 29.98 in1015.2 mb 0.00 in0.0 mm 0.00 in0.0 mm 0.03 in0.8 mm
04:09 AM 63.5°F17.5°C 91.9°F33.3°C - 7.9 mph WSW12.7 kmh WSW 8.4 mph13.5 kmh 29.98 in1015.2 mb 0.00 in0.0 mm 0.00 in0.0 mm 0.03 in0.8 mm
04:14 AM 63.5°F17.5°C 91.8°F33.2°C - 9.1 mph WSW14.6 kmh WSW 9.4 mph15.1 kmh 29.98 in1015.2 mb 0.00 in0.0 mm 0.00 in0.0 mm 0.03 in0.8 mm
04:19 AM 63.3°F17.4°C 91.5°F33.1°C - 5.0 mph WSW8.0 kmh WSW 5.8 mph9.3 kmh 29.98 in1015.2 mb 0.00 in0.0 mm 0.00 in0.0 mm 0.04 in1.0 mm
04:24 AM 63.4°F17.4°C 91.8°F33.2°C - 4.8 mph WSW7.7 kmh WSW 5.5 mph8.9 kmh 29.98 in1015.2 mb 0.00 in0.0 mm 0.00 in0.0 mm 0.04 in1.0 mm
04:29 AM 63.3°F17.4°C 91.7°F33.2°C - 4.9 mph WSW7.9 kmh WSW 6.5 mph10.5 kmh 29.98 in1015.2 mb 0.00 in0.0 mm 0.00 in0.0 mm 0.04 in1.0 mm
04:34 AM 63.4°F17.4°C 91.8°F33.2°C - 5.0 mph WSW8.0 kmh WSW 6.7 mph10.8 kmh 29.98 in1015.2 mb 0.00 in0.0 mm 0.00 in0.0 mm 0.04 in1.0 mm
04:39 AM 63.4°F17.4°C 91.6°F33.1°C - 5.4 mph WSW8.7 kmh WSW 7.0 mph11.3 kmh 29.97 in1014.9 mb 0.00 in0.0 mm 0.00 in0.0 mm 0.04 in1.0 mm
04:44 AM 63.5°F17.5°C 91.9°F33.3°C - 5.9 mph WSW9.5 kmh WSW 7.1 mph11.4 kmh 29.97 in1014.9 mb 0.00 in0.0 mm 0.00 in0.0 mm 0.04 in1.0 mm
04:50 AM 63.5°F17.5°C 91.9°F33.3°C - 5.9 mph WSW9.5 kmh WSW 6.8 mph10.9 kmh 29.97 in1014.9 mb 0.00 in0.0 mm 0.00 in0.0 mm 0.04 in1.0 mm
04:54 AM 63.5°F17.5°C 91.9°F33.3°C - 6.7 mph WSW10.8 kmh WSW 7.7 mph12.4 kmh 29.97 in1014.9 mb 0.00 in0.0 mm 0.00 in0.0 mm 0.04 in1.0 mm
04:59 AM 63.5°F17.5°C 91.9°F33.3°C - 5.6 mph WSW9.0 kmh WSW 6.6 mph10.6 kmh 29.97 in1014.9 mb 0.00 in0.0 mm 0.00 in0.0 mm 0.04 in1.0 mm
05:04 AM 63.5°F17.5°C 91.8°F33.2°C - 5.7 mph WSW9.2 kmh WSW 6.6 mph10.6 kmh 29.97 in1014.9 mb 0.00 in0.0 mm 0.00 in0.0 mm 0.04 in1.0 mm
05:09 AM 63.8°F17.7°C 92.2°F33.4°C - 4.3 mph WSW6.9 kmh WSW 5.0 mph8.0 kmh 29.97 in1014.9 mb 0.00 in0.0 mm 0.00 in0.0 mm 0.04 in1.0 mm
05:14 AM 63.7°F17.6°C 92.0°F33.3°C - 4.8 mph W7.7 kmh W 5.2 mph8.4 kmh 29.97 in1014.9 mb 0.00 in0.0 mm 0.00 in0.0 mm 0.04 in1.0 mm
05:19 AM 63.7°F17.6°C 92.0°F33.3°C - 6.5 mph W10.5 kmh W 6.6 mph10.6 kmh 29.97 in1014.9 mb 0.00 in0.0 mm 0.00 in0.0 mm 0.05 in1.3 mm
05:24 AM 63.9°F17.7°C 92.3°F33.5°C - 8.0 mph W12.9 kmh W 9.0 mph14.5 kmh 29.97 in1014.9 mb 0.00 in0.0 mm 0.00 in0.0 mm 0.05 in1.3 mm
05:29 AM 64.0°F17.8°C 92.3°F33.5°C - 7.4 mph WSW11.9 kmh WSW 8.3 mph13.4 kmh 29.96 in1014.6 mb 0.00 in0.0 mm 0.00 in0.0 mm 0.05 in1.3 mm
05:34 AM 64.0°F17.8°C 92.4°F33.6°C - 7.1 mph WSW11.4 kmh WSW 7.7 mph12.4 kmh 29.97 in1014.9 mb 0.00 in0.0 mm 0.00 in0.0 mm 0.05 in1.3 mm
05:39 AM 64.0°F17.8°C 92.4°F33.6°C - 8.3 mph WSW13.4 kmh WSW 9.3 mph15.0 kmh 29.96 in1014.6 mb 0.00 in0.0 mm 0.00 in0.0 mm 0.05 in1.3 mm
05:44 AM 64.0°F17.8°C 92.3°F33.5°C - 6.3 mph W10.1 kmh W 6.5 mph10.5 kmh 29.97 in1014.9 mb 0.00 in0.0 mm 0.00 in0.0 mm 0.06 in1.5 mm
05:49 AM 64.0°F17.8°C 92.4°F33.6°C - 6.7 mph WSW10.8 kmh WSW 7.3 mph11.7 kmh 29.97 in1014.9 mb 0.00 in0.0 mm 0.00 in0.0 mm 0.06 in1.5 mm
05:54 AM 64.0°F17.8°C 92.3°F33.5°C - 6.5 mph W10.5 kmh W 6.8 mph10.9 kmh 29.97 in1014.9 mb 0.00 in0.0 mm 0.00 in0.0 mm 0.06 in1.5 mm
05:59 AM 64.2°F17.9°C 92.5°F33.6°C - 6.5 mph WSW10.5 kmh WSW 7.1 mph11.4 kmh 29.97 in1014.9 mb 0.00 in0.0 mm 0.00 in0.0 mm 0.07 in1.8 mm
06:04 AM 64.2°F17.9°C 92.5°F33.6°C - 9.4 mph W15.1 kmh W 10.0 mph16.1 kmh 29.96 in1014.6 mb 0.00 in0.0 mm 0.00 in0.0 mm 0.08 in2.0 mm
06:09 AM 64.2°F17.9°C 92.5°F33.6°C - 8.9 mph W14.3 kmh W 8.9 mph14.3 kmh 29.96 in1014.6 mb 0.00 in0.0 mm 0.00 in0.0 mm 0.08 in2.0 mm
06:14 AM 64.2°F17.9°C 92.5°F33.6°C - 7.9 mph WSW12.7 kmh WSW 8.4 mph13.5 kmh 29.96 in1014.6 mb 0.00 in0.0 mm 0.00 in0.0 mm 0.09 in2.3 mm
06:19 AM 64.2°F17.9°C 92.5°F33.6°C - 6.8 mph WSW10.9 kmh WSW 7.6 mph12.2 kmh 29.96 in1014.6 mb 0.00 in0.0 mm 0.00 in0.0 mm 0.09 in2.3 mm
06:24 AM 64.4°F18.0°C 92.8°F33.8°C - 7.5 mph WSW12.1 kmh WSW 8.5 mph13.7 kmh 29.96 in1014.6 mb 0.00 in0.0 mm 0.00 in0.0 mm 0.10 in2.5 mm
06:29 AM 64.4°F18.0°C 92.8°F33.8°C - 6.9 mph W11.1 kmh W 7.8 mph12.6 kmh 29.96 in1014.6 mb 0.00 in0.0 mm 0.00 in0.0 mm 0.10 in2.5 mm
06:34 AM 64.4°F18.0°C 92.9°F33.8°C - 8.3 mph W13.4 kmh W 9.2 mph14.8 kmh 29.96 in1014.6 mb 0.00 in0.0 mm 0.00 in0.0 mm 0.10 in2.5 mm
06:39 AM 64.4°F18.0°C 92.9°F33.8°C - 8.1 mph WSW13.0 kmh WSW 9.8 mph15.8 kmh 29.96 in1014.6 mb 0.00 in0.0 mm 0.00 in0.0 mm 0.10 in2.5 mm
06:44 AM 64.4°F18.0°C 92.9°F33.8°C - 7.4 mph WSW11.9 kmh WSW 8.2 mph13.2 kmh 29.96 in1014.6 mb 0.00 in0.0 mm 0.00 in0.0 mm 0.10 in2.5 mm
06:50 AM 64.5°F18.1°C 93.0°F33.9°C - 8.8 mph WSW14.2 kmh WSW 9.9 mph15.9 kmh 29.96 in1014.6 mb 0.00 in0.0 mm 0.00 in0.0 mm 0.10 in2.5 mm
06:54 AM 64.5°F18.1°C 93.0°F33.9°C - 7.9 mph WSW12.7 kmh WSW 9.2 mph14.8 kmh 29.96 in1014.6 mb 0.00 in0.0 mm 0.00 in0.0 mm 0.10 in2.5 mm
06:59 AM 64.7°F18.2°C 93.1°F33.9°C - 10.6 mph W17.1 kmh W 11.8 mph19.0 kmh 29.96 in1014.6 mb 0.00 in0.0 mm 0.00 in0.0 mm 0.10 in2.5 mm
07:04 AM 64.7°F18.2°C 93.2°F34.0°C - 10.2 mph W16.4 kmh W 11.4 mph18.3 kmh 29.96 in1014.6 mb 0.00 in0.0 mm 0.00 in0.0 mm 0.10 in2.5 mm
07:09 AM 64.7°F18.2°C 93.2°F34.0°C - 9.3 mph W15.0 kmh W 10.7 mph17.2 kmh 29.96 in1014.6 mb 0.00 in0.0 mm 0.00 in0.0 mm 0.10 in2.5 mm
07:14 AM 64.8°F18.2°C 93.3°F34.1°C - 8.8 mph WSW14.2 kmh WSW 10.5 mph16.9 kmh 29.96 in1014.6 mb 0.00 in0.0 mm 0.00 in0.0 mm 0.10 in2.5 mm
07:19 AM 64.9°F18.3°C 93.5°F34.2°C - 7.2 mph W11.6 kmh W 10.0 mph16.1 kmh 29.96 in1014.6 mb 0.00 in0.0 mm 0.00 in0.0 mm 0.10 in2.5 mm
07:24 AM 65.0°F18.3°C 93.6°F34.2°C - 9.0 mph WSW14.5 kmh WSW 9.9 mph15.9 kmh 29.96 in1014.6 mb 0.00 in0.0 mm 0.00 in0.0 mm 0.10 in2.5 mm
07:29 AM 65.0°F18.3°C 93.6°F34.2°C - 10.2 mph W16.4 kmh W 11.5 mph18.5 kmh 29.96 in1014.6 mb 0.00 in0.0 mm 0.00 in0.0 mm 0.10 in2.5 mm
07:34 AM 65.0°F18.3°C 93.6°F34.2°C - 10.4 mph W16.7 kmh W 12.1 mph19.5 kmh 29.96 in1014.6 mb 0.00 in0.0 mm 0.00 in0.0 mm 0.10 in2.5 mm
07:39 AM 65.0°F18.3°C 93.6°F34.2°C - 8.2 mph W13.2 kmh W 9.4 mph15.1 kmh 29.96 in1014.6 mb 0.00 in0.0 mm 0.00 in0.0 mm 0.10 in2.5 mm
07:44 AM 65.2°F18.4°C 93.8°F34.3°C - 9.8 mph WNW15.8 kmh WNW 11.6 mph18.7 kmh 29.96 in1014.6 mb 0.00 in0.0 mm 0.00 in0.0 mm 0.10 in2.5 mm
07:49 AM 65.2°F18.4°C 93.7°F34.3°C - 9.0 mph W14.5 kmh W 11.0 mph17.7 kmh 29.96 in1014.6 mb 0.00 in0.0 mm 0.00 in0.0 mm 0.10 in2.5 mm
07:54 AM 65.3°F18.5°C 93.9°F34.4°C - 9.3 mph W15.0 kmh W 11.0 mph17.7 kmh 29.96 in1014.6 mb 0.00 in0.0 mm 0.00 in0.0 mm 0.10 in2.5 mm
07:59 AM 65.3°F18.5°C 93.9°F34.4°C - 10.9 mph W17.5 kmh W 12.7 mph20.4 kmh 29.96 in1014.6 mb 0.00 in0.0 mm 0.00 in0.0 mm 0.10 in2.5 mm
08:04 AM 65.2°F18.4°C 93.8°F34.3°C - 10.2 mph W16.4 kmh W 12.6 mph20.3 kmh 29.96 in1014.6 mb 0.00 in0.0 mm 0.00 in0.0 mm 0.10 in2.5 mm
08:09 AM 65.4°F18.6°C 94.0°F34.4°C - 10.5 mph W16.9 kmh W 13.2 mph21.2 kmh 29.96 in1014.6 mb 0.00 in0.0 mm 0.00 in0.0 mm 0.10 in2.5 mm
08:14 AM 65.4°F18.6°C 94.0°F34.4°C - 9.7 mph W15.6 kmh W 11.4 mph18.3 kmh 29.96 in1014.6 mb 0.00 in0.0 mm 0.00 in0.0 mm 0.10 in2.5 mm
08:19 AM 65.5°F18.6°C 94.0°F34.4°C - 8.3 mph W13.4 kmh W 9.8 mph15.8 kmh 29.96 in1014.6 mb 0.00 in0.0 mm 0.00 in0.0 mm 0.10 in2.5 mm
08:24 AM 65.6°F18.7°C 94.3°F34.6°C - 8.6 mph W13.8 kmh W 10.9 mph17.5 kmh 29.96 in1014.6 mb 0.00 in0.0 mm 0.00 in0.0 mm 0.10 in2.5 mm
08:29 AM 65.5°F18.6°C 94.1°F34.5°C - 7.9 mph W12.7 kmh W 9.4 mph15.1 kmh 29.96 in1014.6 mb 0.00 in0.0 mm 0.00 in0.0 mm 0.10 in2.5 mm
08:34 AM 65.5°F18.6°C 94.1°F34.5°C - 8.2 mph W13.2 kmh W 10.6 mph17.1 kmh 29.96 in1014.6 mb 0.00 in0.0 mm 0.00 in0.0 mm 0.10 in2.5 mm
08:39 AM 65.5°F18.6°C 94.0°F34.4°C - 8.5 mph WSW13.7 kmh WSW 10.8 mph17.4 kmh 29.96 in1014.6 mb 0.00 in0.0 mm 0.00 in0.0 mm 0.10 in2.5 mm
08:44 AM 65.7°F18.7°C 94.2°F34.6°C - 8.4 mph W13.5 kmh W 9.9 mph15.9 kmh 29.96 in1014.6 mb 0.00 in0.0 mm 0.00 in0.0 mm 0.10 in2.5 mm
08:49 AM 65.7°F18.7°C 94.4°F34.7°C - 8.3 mph W13.4 kmh W 10.6 mph17.1 kmh 29.96 in1014.6 mb 0.00 in0.0 mm 0.00 in0.0 mm 0.10 in2.5 mm
08:54 AM 65.9°F18.8°C 94.6°F34.8°C - 8.8 mph WNW14.2 kmh WNW 10.4 mph16.7 kmh 29.96 in1014.6 mb 0.00 in0.0 mm 0.00 in0.0 mm 0.10 in2.5 mm
08:59 AM 65.9°F18.8°C 94.6°F34.8°C - 7.5 mph WNW12.1 kmh WNW 14.4 mph23.2 kmh 29.96 in1014.6 mb 0.00 in0.0 mm 0.00 in0.0 mm 0.11 in2.8 mm
09:04 AM 65.9°F18.8°C 94.5°F34.7°C - 11.1 mph W17.9 kmh W 12.5 mph20.1 kmh 29.97 in1014.9 mb 0.00 in0.0 mm 0.00 in0.0 mm 0.11 in2.8 mm
09:09 AM 66.0°F18.9°C 94.7°F34.8°C - 9.0 mph W14.5 kmh W 12.9 mph20.8 kmh 29.97 in1014.9 mb 0.00 in0.0 mm 0.00 in0.0 mm 0.11 in2.8 mm
09:14 AM 66.0°F18.9°C 94.7°F34.8°C - 11.4 mph WNW18.3 kmh WNW 13.3 mph21.4 kmh 29.97 in1014.9 mb 0.00 in0.0 mm 0.00 in0.0 mm 0.11 in2.8 mm
09:19 AM 66.0°F18.9°C 94.7°F34.8°C - 10.5 mph WNW16.9 kmh WNW 13.3 mph21.4 kmh 29.96 in1014.6 mb 0.00 in0.0 mm 0.00 in0.0 mm 0.12 in3.0 mm
09:24 AM 65.9°F18.8°C 94.6°F34.8°C - 14.7 mph WNW23.7 kmh WNW 16.5 mph26.6 kmh 29.97 in1014.9 mb 0.00 in0.0 mm 0.00 in0.0 mm 0.12 in3.0 mm
09:29 AM 65.7°F18.7°C 94.4°F34.7°C - 13.8 mph WNW22.2 kmh WNW 16.2 mph26.1 kmh 29.97 in1014.9 mb 0.00 in0.0 mm 0.00 in0.0 mm 0.12 in3.0 mm
09:34 AM 65.7°F18.7°C 94.4°F34.7°C - 1.6 mph NW2.6 kmh NW 9.8 mph15.8 kmh 29.97 in1014.9 mb 0.00 in0.0 mm 0.00 in0.0 mm 0.12 in3.0 mm
09:39 AM 65.4°F18.6°C 94.0°F34.4°C - 6.7 mph WNW10.8 kmh WNW 10.3 mph16.6 kmh 29.97 in1014.9 mb 0.00 in0.0 mm 0.00 in0.0 mm 0.12 in3.0 mm
09:44 AM 65.0°F18.3°C 93.6°F34.2°C - 13.6 mph WNW21.9 kmh WNW 15.3 mph24.6 kmh 29.97 in1014.9 mb 0.00 in0.0 mm 0.00 in0.0 mm 0.12 in3.0 mm
09:49 AM 65.2°F18.4°C 93.8°F34.3°C - 9.6 mph WNW15.4 kmh WNW 13.0 mph20.9 kmh 29.97 in1014.9 mb 0.00 in0.0 mm 0.00 in0.0 mm 0.12 in3.0 mm
09:54 AM 65.6°F18.7°C 94.3°F34.6°C - 10.2 mph WNW16.4 kmh WNW 12.6 mph20.3 kmh 29.97 in1014.9 mb 0.00 in0.0 mm 0.00 in0.0 mm 0.12 in3.0 mm
09:59 AM 66.0°F18.9°C 94.7°F34.8°C - 7.1 mph WNW11.4 kmh WNW 10.9 mph17.5 kmh 29.98 in1015.2 mb 0.00 in0.0 mm 0.00 in0.0 mm 0.12 in3.0 mm
10:04 AM 66.2°F19.0°C 94.8°F34.9°C - 10.5 mph W16.9 kmh W 12.6 mph20.3 kmh 29.97 in1014.9 mb 0.00 in0.0 mm 0.00 in0.0 mm 0.13 in3.3 mm
10:09 AM 66.5°F19.2°C 95.1°F35.1°C - 11.4 mph W18.3 kmh W 13.9 mph22.4 kmh 29.98 in1015.2 mb 0.00 in0.0 mm 0.00 in0.0 mm 0.13 in3.3 mm
10:15 AM 66.4°F19.1°C 95.2°F35.1°C - 13.8 mph WNW22.2 kmh WNW 15.5 mph24.9 kmh 29.97 in1014.9 mb 0.00 in0.0 mm 0.00 in0.0 mm 0.13 in3.3 mm
10:19 AM 66.4°F19.1°C 95.2°F35.1°C - 13.3 mph WNW21.4 kmh WNW 15.6 mph25.1 kmh 29.98 in1015.2 mb 0.00 in0.0 mm 0.00 in0.0 mm 0.13 in3.3 mm
10:24 AM 66.5°F19.2°C 95.1°F35.1°C - 14.6 mph WNW23.5 kmh WNW 16.7 mph26.9 kmh 29.97 in1014.9 mb 0.00 in0.0 mm 0.00 in0.0 mm 0.13 in3.3 mm
10:29 AM 66.5°F19.2°C 95.3°F35.2°C - 12.7 mph WNW20.4 kmh WNW 14.7 mph23.7 kmh 29.98 in1015.2 mb 0.00 in0.0 mm 0.00 in0.0 mm 0.13 in3.3 mm
10:34 AM 66.7°F19.3°C 95.5°F35.3°C - 15.5 mph WNW24.9 kmh WNW 17.0 mph27.4 kmh 29.98 in1015.2 mb 0.00 in0.0 mm 0.00 in0.0 mm 0.13 in3.3 mm
10:39 AM 66.7°F19.3°C 95.5°F35.3°C - 13.8 mph WNW22.2 kmh WNW 15.5 mph24.9 kmh 29.98 in1015.2 mb 0.00 in0.0 mm 0.00 in0.0 mm 0.13 in3.3 mm
10:44 AM 66.7°F19.3°C 95.5°F35.3°C - 14.8 mph WNW23.8 kmh WNW 16.8 mph27.0 kmh 29.98 in1015.2 mb 0.00 in0.0 mm 0.00 in0.0 mm 0.13 in3.3 mm
10:49 AM 66.4°F19.1°C 95.2°F35.1°C - 16.5 mph WNW26.6 kmh WNW 19.1 mph30.7 kmh 29.98 in1015.2 mb 0.00 in0.0 mm 0.00 in0.0 mm 0.13 in3.3 mm
10:54 AM 66.5°F19.2°C 95.1°F35.1°C - 15.8 mph WNW25.4 kmh WNW 18.5 mph29.8 kmh 29.98 in1015.2 mb 0.00 in0.0 mm 0.00 in0.0 mm 0.13 in3.3 mm
10:59 AM 66.7°F19.3°C 95.5°F35.3°C - 17.1 mph WNW27.5 kmh WNW 19.2 mph30.9 kmh 29.98 in1015.2 mb 0.00 in0.0 mm 0.00 in0.0 mm 0.13 in3.3 mm
11:04 AM 66.7°F19.3°C 95.4°F35.2°C - 17.2 mph WNW27.7 kmh WNW 19.9 mph32.0 kmh 29.98 in1015.2 mb 0.00 in0.0 mm 0.00 in0.0 mm 0.13 in3.3 mm
11:09 AM 67.0°F19.4°C 95.8°F35.4°C - 15.4 mph WNW24.8 kmh WNW 18.5 mph29.8 kmh 29.98 in1015.2 mb 0.00 in0.0 mm 0.00 in0.0 mm 0.13 in3.3 mm
11:14 AM 67.0°F19.4°C 95.8°F35.4°C - 16.9 mph WNW27.2 kmh WNW 19.2 mph30.9 kmh 29.98 in1015.2 mb 0.00 in0.0 mm 0.00 in0.0 mm 0.13 in3.3 mm
11:19 AM 67.1°F19.5°C 95.9°F35.5°C - 14.5 mph WNW23.3 kmh WNW 16.8 mph27.0 kmh 29.98 in1015.2 mb 0.00 in0.0 mm 0.00 in0.0 mm 0.13 in3.3 mm
11:24 AM 67.2°F19.6°C 95.9°F35.5°C - 14.7 mph WNW23.7 kmh WNW 17.2 mph27.7 kmh 29.98 in1015.2 mb 0.00 in0.0 mm 0.00 in0.0 mm 0.13 in3.3 mm
11:29 AM 67.2°F19.6°C 96.1°F35.6°C - 17.3 mph WNW27.8 kmh WNW 20.0 mph32.2 kmh 29.98 in1015.2 mb 0.00 in0.0 mm 0.00 in0.0 mm 0.13 in3.3 mm
11:34 AM 67.2°F19.6°C 95.9°F35.5°C - 14.9 mph WNW24.0 kmh WNW 16.6 mph26.7 kmh 29.99 in1015.6 mb 0.00 in0.0 mm 0.00 in0.0 mm 0.13 in3.3 mm
11:39 AM 67.1°F19.5°C 95.9°F35.5°C - 15.9 mph WNW25.6 kmh WNW 19.3 mph31.1 kmh 29.99 in1015.6 mb 0.00 in0.0 mm 0.00 in0.0 mm 0.13 in3.3 mm
11:44 AM 67.0°F19.4°C 95.8°F35.4°C - 15.9 mph W25.6 kmh W 18.8 mph30.3 kmh 29.99 in1015.6 mb 0.00 in0.0 mm 0.00 in0.0 mm 0.13 in3.3 mm
11:49 AM 67.1°F19.5°C 95.9°F35.5°C - 14.6 mph W23.5 kmh W 18.4 mph29.6 kmh 29.99 in1015.6 mb 0.00 in0.0 mm 0.00 in0.0 mm 0.13 in3.3 mm
11:54 AM 67.2°F19.6°C 95.9°F35.5°C - 17.3 mph WNW27.8 kmh WNW 20.0 mph32.2 kmh 29.99 in1015.6 mb 0.00 in0.0 mm 0.00 in0.0 mm 0.13 in3.3 mm
11:59 AM 67.2°F19.6°C 95.9°F35.5°C - 17.6 mph WNW28.3 kmh WNW 20.3 mph32.7 kmh 29.99 in1015.6 mb 0.00 in0.0 mm 0.00 in0.0 mm 0.13 in3.3 mm
12:04 PM 67.2°F19.6°C 95.9°F35.5°C - 19.0 mph WNW30.6 kmh WNW 21.8 mph35.1 kmh 29.99 in1015.6 mb 0.00 in0.0 mm 0.00 in0.0 mm 0.13 in3.3 mm
12:09 PM 67.0°F19.4°C 95.7°F35.4°C - 19.3 mph NW31.1 kmh NW 21.8 mph35.1 kmh 29.99 in1015.6 mb 0.00 in0.0 mm 0.00 in0.0 mm 0.13 in3.3 mm
12:14 PM 67.0°F19.4°C 95.8°F35.4°C - 16.5 mph NW26.6 kmh NW 18.3 mph29.5 kmh 29.99 in1015.6 mb 0.00 in0.0 mm 0.00 in0.0 mm 0.13 in3.3 mm
12:19 PM 67.2°F19.6°C 95.9°F35.5°C - 17.2 mph WNW27.7 kmh WNW 20.2 mph32.5 kmh 29.99 in1015.6 mb 0.00 in0.0 mm 0.00 in0.0 mm 0.13 in3.3 mm
12:24 PM 67.2°F19.6°C 95.9°F35.5°C - 17.4 mph WNW28.0 kmh WNW 19.8 mph31.9 kmh 30.00 in1015.9 mb 0.00 in0.0 mm 0.00 in0.0 mm 0.13 in3.3 mm
12:30 PM 67.0°F19.4°C 95.7°F35.4°C - 16.7 mph WNW26.9 kmh WNW 19.4 mph31.2 kmh 30.00 in1015.9 mb 0.00 in0.0 mm 0.00 in0.0 mm 0.13 in3.3 mm
12:34 PM 67.0°F19.4°C 95.8°F35.4°C - 18.0 mph W29.0 kmh W 20.9 mph33.6 kmh 30.00 in1015.9 mb 0.00 in0.0 mm 0.00 in0.0 mm 0.13 in3.3 mm
12:39 PM 67.2°F19.6°C 96.1°F35.6°C - 16.1 mph WNW25.9 kmh WNW 18.6 mph29.9 kmh 30.00 in1015.9 mb 0.00 in0.0 mm 0.00 in0.0 mm 0.13 in3.3 mm
12:44 PM 67.3°F19.6°C 96.0°F35.6°C - 19.2 mph WNW30.9 kmh WNW 22.7 mph36.5 kmh 30.00 in1015.9 mb 0.00 in0.0 mm 0.00 in0.0 mm 0.13 in3.3 mm
12:49 PM 67.0°F19.4°C 95.8°F35.4°C - 20.4 mph WNW32.8 kmh WNW 22.6 mph36.4 kmh 30.00 in1015.9 mb 0.00 in0.0 mm 0.00 in0.0 mm 0.13 in3.3 mm
12:54 PM 66.9°F19.4°C 95.7°F35.4°C - 15.8 mph WNW25.4 kmh WNW 17.7 mph28.5 kmh 30.00 in1015.9 mb 0.00 in0.0 mm 0.00 in0.0 mm 0.13 in3.3 mm
12:59 PM 67.0°F19.4°C 95.7°F35.4°C - 12.6 mph W20.3 kmh W 14.5 mph23.3 kmh 30.00 in1015.9 mb 0.00 in0.0 mm 0.00 in0.0 mm 0.13 in3.3 mm
01:04 PM 67.2°F19.6°C 96.1°F35.6°C - 15.8 mph WNW25.4 kmh WNW 18.7 mph30.1 kmh 30.00 in1015.9 mb 0.00 in0.0 mm 0.00 in0.0 mm 0.13 in3.3 mm
01:09 PM 67.2°F19.6°C 96.1°F35.6°C - 18.2 mph WNW29.3 kmh WNW 21.0 mph33.8 kmh 30.00 in1015.9 mb 0.00 in0.0 mm 0.00 in0.0 mm 0.13 in3.3 mm
01:14 PM 67.2°F19.6°C 96.1°F35.6°C - 16.6 mph WNW26.7 kmh WNW 18.8 mph30.3 kmh 30.00 in1015.9 mb 0.00 in0.0 mm 0.00 in0.0 mm 0.13 in3.3 mm
01:19 PM 67.2°F19.6°C 96.1°F35.6°C - 14.2 mph W22.9 kmh W 16.3 mph26.2 kmh 30.00 in1015.9 mb 0.00 in0.0 mm 0.00 in0.0 mm 0.13 in3.3 mm
01:24 PM 67.1°F19.5°C 95.8°F35.4°C - 17.7 mph WNW28.5 kmh WNW 20.2 mph32.5 kmh 30.00 in1015.9 mb 0.00 in0.0 mm 0.00 in0.0 mm 0.13 in3.3 mm
01:29 PM 67.0°F19.4°C 95.8°F35.4°C - 20.1 mph WNW32.3 kmh WNW 22.1 mph35.6 kmh 30.01 in1016.3 mb 0.00 in0.0 mm 0.00 in0.0 mm 0.13 in3.3 mm
01:34 PM 66.9°F19.4°C 95.6°F35.3°C - 16.7 mph W26.9 kmh W 18.9 mph30.4 kmh 30.01 in1016.3 mb 0.00 in0.0 mm 0.00 in0.0 mm 0.13 in3.3 mm
01:39 PM 66.9°F19.4°C 95.7°F35.4°C - 15.8 mph WNW25.4 kmh WNW 17.7 mph28.5 kmh 30.01 in1016.3 mb 0.00 in0.0 mm 0.00 in0.0 mm 0.13 in3.3 mm
01:44 PM 66.9°F19.4°C 95.7°F35.4°C - 18.4 mph WNW29.6 kmh WNW 21.0 mph33.8 kmh 30.01 in1016.3 mb 0.00 in0.0 mm 0.00 in0.0 mm 0.13 in3.3 mm
01:49 PM 66.9°F19.4°C 95.7°F35.4°C - 16.8 mph WNW27.0 kmh WNW 19.5 mph31.4 kmh 30.01 in1016.3 mb 0.00 in0.0 mm 0.00 in0.0 mm 0.13 in3.3 mm
01:54 PM 66.9°F19.4°C 95.7°F35.4°C - 17.2 mph WNW27.7 kmh WNW 21.2 mph34.1 kmh 30.02 in1016.6 mb 0.00 in0.0 mm 0.00 in0.0 mm 0.13 in3.3 mm
01:59 PM 66.9°F19.4°C 95.6°F35.3°C - 14.8 mph WNW23.8 kmh WNW 16.7 mph26.9 kmh 30.01 in1016.3 mb 0.00 in0.0 mm 0.00 in0.0 mm 0.13 in3.3 mm
02:04 PM 66.7°F19.3°C 95.5°F35.3°C - 18.2 mph W29.3 kmh W 20.6 mph33.2 kmh 30.01 in1016.3 mb 0.00 in0.0 mm 0.00 in0.0 mm 0.13 in3.3 mm
02:10 PM 66.7°F19.3°C 95.4°F35.2°C - 15.3 mph WNW24.6 kmh WNW 17.4 mph28.0 kmh 30.02 in1016.6 mb 0.00 in0.0 mm 0.00 in0.0 mm 0.13 in3.3 mm
02:14 PM 66.8°F19.3°C 95.5°F35.3°C - 17.8 mph WNW28.6 kmh WNW 20.5 mph33.0 kmh 30.02 in1016.6 mb 0.00 in0.0 mm 0.00 in0.0 mm 0.13 in3.3 mm
02:19 PM 66.7°F19.3°C 95.5°F35.3°C - 16.0 mph WNW25.7 kmh WNW 19.0 mph30.6 kmh 30.02 in1016.6 mb 0.00 in0.0 mm 0.00 in0.0 mm 0.13 in3.3 mm
02:24 PM 66.9°F19.4°C 95.7°F35.4°C - 18.0 mph WNW29.0 kmh WNW 22.0 mph35.4 kmh 30.02 in1016.6 mb 0.00 in0.0 mm 0.00 in0.0 mm 0.13 in3.3 mm
02:29 PM 66.9°F19.4°C 95.7°F35.4°C - 20.7 mph WNW33.3 kmh WNW 22.9 mph36.9 kmh 30.01 in1016.3 mb 0.00 in0.0 mm 0.00 in0.0 mm 0.13 in3.3 mm
02:34 PM 66.7°F19.3°C 95.5°F35.3°C - 21.3 mph WNW34.3 kmh WNW 23.5 mph37.8 kmh 30.01 in1016.3 mb 0.00 in0.0 mm 0.00 in0.0 mm 0.13 in3.3 mm
02:39 PM 66.7°F19.3°C 95.4°F35.2°C - 21.4 mph WNW34.4 kmh WNW 24.4 mph39.3 kmh 30.01 in1016.3 mb 0.00 in0.0 mm 0.00 in0.0 mm 0.13 in3.3 mm
02:44 PM 66.7°F19.3°C 95.5°F35.3°C - 18.8 mph WNW30.3 kmh WNW 21.2 mph34.1 kmh 30.02 in1016.6 mb 0.00 in0.0 mm 0.00 in0.0 mm 0.13 in3.3 mm
02:49 PM 66.7°F19.3°C 95.5°F35.3°C - 17.4 mph WNW28.0 kmh WNW 19.4 mph31.2 kmh 30.02 in1016.6 mb 0.00 in0.0 mm 0.00 in0.0 mm 0.13 in3.3 mm
02:54 PM 66.7°F19.3°C 95.5°F35.3°C - 18.7 mph WNW30.1 kmh WNW 20.9 mph33.6 kmh 30.02 in1016.6 mb 0.00 in0.0 mm 0.00 in0.0 mm 0.13 in3.3 mm
02:59 PM 66.5°F19.2°C 95.3°F35.2°C - 20.3 mph NW32.7 kmh NW 21.4 mph34.4 kmh 30.02 in1016.6 mb 0.00 in0.0 mm 0.00 in0.0 mm 0.13 in3.3 mm
03:04 PM 66.2°F19.0°C 94.8°F34.9°C - 18.6 mph WNW29.9 kmh WNW 19.9 mph32.0 kmh 30.02 in1016.6 mb 0.00 in0.0 mm 0.00 in0.0 mm 0.13 in3.3 mm
03:09 PM 66.3°F19.1°C 95.0°F35.0°C - 17.8 mph NW28.6 kmh NW 20.0 mph32.2 kmh 30.02 in1016.6 mb 0.00 in0.0 mm 0.00 in0.0 mm 0.13 in3.3 mm
03:14 PM 66.2°F19.0°C 94.8°F34.9°C - 14.6 mph WNW23.5 kmh WNW 14.6 mph23.5 kmh 30.02 in1016.6 mb 0.00 in0.0 mm 0.00 in0.0 mm 0.13 in3.3 mm
03:19 PM 66.3°F19.1°C 95.0°F35.0°C - 19.0 mph WNW30.6 kmh WNW 20.0 mph32.2 kmh 30.02 in1016.6 mb 0.00 in0.0 mm 0.00 in0.0 mm 0.13 in3.3 mm
03:24 PM 66.4°F19.1°C 95.2°F35.1°C - 15.6 mph WNW25.1 kmh WNW 16.2 mph26.1 kmh 30.03 in1016.9 mb 0.00 in0.0 mm 0.00 in0.0 mm 0.13 in3.3 mm
03:30 PM 66.3°F19.1°C 94.9°F34.9°C - 17.0 mph WNW27.4 kmh WNW 17.6 mph28.3 kmh 30.03 in1016.9 mb 0.00 in0.0 mm 0.00 in0.0 mm 0.13 in3.3 mm
03:34 PM 66.2°F19.0°C 94.9°F34.9°C - 18.6 mph NW29.9 kmh NW 19.3 mph31.1 kmh 30.03 in1016.9 mb 0.00 in0.0 mm 0.00 in0.0 mm 0.13 in3.3 mm
03:40 PM 66.0°F18.9°C 94.6°F34.8°C - 20.1 mph WNW32.3 kmh WNW 21.2 mph34.1 kmh 30.02 in1016.6 mb 0.00 in0.0 mm 0.00 in0.0 mm 0.13 in3.3 mm
03:44 PM 66.0°F18.9°C 94.6°F34.8°C - 18.1 mph WNW29.1 kmh WNW 18.8 mph30.3 kmh 30.03 in1016.9 mb 0.00 in0.0 mm 0.00 in0.0 mm 0.13 in3.3 mm
03:49 PM 65.9°F18.8°C 94.5°F34.7°C - 14.5 mph NW23.3 kmh NW 14.8 mph23.8 kmh 30.03 in1016.9 mb 0.00 in0.0 mm 0.00 in0.0 mm 0.13 in3.3 mm
03:54 PM 65.9°F18.8°C 94.5°F34.7°C - 17.2 mph WNW27.7 kmh WNW 17.8 mph28.6 kmh 30.04 in1017.3 mb 0.00 in0.0 mm 0.00 in0.0 mm 0.13 in3.3 mm
03:59 PM 65.9°F18.8°C 94.6°F34.8°C - 16.2 mph WNW26.1 kmh WNW 17.5 mph28.2 kmh 30.04 in1017.3 mb 0.00 in0.0 mm 0.00 in0.0 mm 0.13 in3.3 mm
04:04 PM 66.0°F18.9°C 94.6°F34.8°C - 16.2 mph WNW26.1 kmh WNW 18.8 mph30.3 kmh 30.04 in1017.3 mb 0.00 in0.0 mm 0.00 in0.0 mm 0.13 in3.3 mm
04:09 PM 65.9°F18.8°C 94.5°F34.7°C - 12.9 mph W20.8 kmh W 15.4 mph24.8 kmh 30.04 in1017.3 mb 0.00 in0.0 mm 0.00 in0.0 mm 0.13 in3.3 mm
04:14 PM 65.9°F18.8°C 94.6°F34.8°C - 17.2 mph WNW27.7 kmh WNW 20.5 mph33.0 kmh 30.04 in1017.3 mb 0.00 in0.0 mm 0.00 in0.0 mm 0.13 in3.3 mm
04:19 PM 65.7°F18.7°C 94.4°F34.7°C - 15.9 mph WNW25.6 kmh WNW 18.3 mph29.5 kmh 30.04 in1017.3 mb 0.00 in0.0 mm 0.00 in0.0 mm 0.13 in3.3 mm
04:24 PM 65.7°F18.7°C 94.4°F34.7°C - 14.5 mph NW23.3 kmh NW 17.3 mph27.8 kmh 30.04 in1017.3 mb 0.00 in0.0 mm 0.00 in0.0 mm 0.13 in3.3 mm
04:29 PM 65.7°F18.7°C 94.2°F34.6°C - 16.7 mph WNW26.9 kmh WNW 19.8 mph31.9 kmh 30.04 in1017.3 mb 0.00 in0.0 mm 0.00 in0.0 mm 0.13 in3.3 mm
04:34 PM 65.5°F18.6°C 94.0°F34.4°C - 16.6 mph WNW26.7 kmh WNW 19.5 mph31.4 kmh 30.04 in1017.3 mb 0.00 in0.0 mm 0.00 in0.0 mm 0.13 in3.3 mm
04:39 PM 65.5°F18.6°C 94.0°F34.4°C - 16.0 mph WNW25.7 kmh WNW 18.5 mph29.8 kmh 30.04 in1017.3 mb 0.00 in0.0 mm 0.00 in0.0 mm 0.13 in3.3 mm
04:44 PM 65.5°F18.6°C 94.1°F34.5°C - 18.3 mph NW29.5 kmh NW 20.2 mph32.5 kmh 30.04 in1017.3 mb 0.00 in0.0 mm 0.00 in0.0 mm 0.13 in3.3 mm
04:49 PM 65.4°F18.6°C 94.0°F34.4°C - 17.3 mph NW27.8 kmh NW 19.8 mph31.9 kmh 30.04 in1017.3 mb 0.00 in0.0 mm 0.00 in0.0 mm 0.13 in3.3 mm
04:54 PM 65.3°F18.5°C 93.9°F34.4°C - 17.6 mph NW28.3 kmh NW 19.5 mph31.4 kmh 30.04 in1017.3 mb 0.00 in0.0 mm 0.00 in0.0 mm 0.13 in3.3 mm
04:59 PM 65.2°F18.4°C 93.8°F34.3°C - 14.6 mph NW23.5 kmh NW 16.3 mph26.2 kmh 30.04 in1017.3 mb 0.00 in0.0 mm 0.00 in0.0 mm 0.13 in3.3 mm
05:04 PM 65.3°F18.5°C 93.9°F34.4°C - 15.8 mph WNW25.4 kmh WNW 17.9 mph28.8 kmh 30.04 in1017.3 mb 0.00 in0.0 mm 0.00 in0.0 mm 0.13 in3.3 mm
05:09 PM 65.2°F18.4°C 93.7°F34.3°C - 14.6 mph WNW23.5 kmh WNW 16.3 mph26.2 kmh 30.04 in1017.3 mb 0.00 in0.0 mm 0.00 in0.0 mm 0.13 in3.3 mm
05:14 PM 65.2°F18.4°C 93.7°F34.3°C - 13.8 mph NW22.2 kmh NW 15.6 mph25.1 kmh 30.05 in1017.6 mb 0.00 in0.0 mm 0.00 in0.0 mm 0.13 in3.3 mm
05:19 PM 65.3°F18.5°C 93.9°F34.4°C - 15.6 mph WNW25.1 kmh WNW 17.6 mph28.3 kmh 30.05 in1017.6 mb 0.00 in0.0 mm 0.00 in0.0 mm 0.13 in3.3 mm
05:24 PM 65.3°F18.5°C 93.9°F34.4°C - 15.7 mph WNW25.3 kmh WNW 17.3 mph27.8 kmh 30.05 in1017.6 mb 0.00 in0.0 mm 0.00 in0.0 mm 0.13 in3.3 mm
05:29 PM 65.0°F18.3°C 93.6°F34.2°C - 16.7 mph WNW26.9 kmh WNW 18.4 mph29.6 kmh 30.05 in1017.6 mb 0.00 in0.0 mm 0.00 in0.0 mm 0.13 in3.3 mm
05:34 PM 65.1°F18.4°C 93.6°F34.2°C - 15.3 mph WNW24.6 kmh WNW 17.2 mph27.7 kmh 30.05 in1017.6 mb 0.00 in0.0 mm 0.00 in0.0 mm 0.13 in3.3 mm
05:39 PM 65.2°F18.4°C 93.8°F34.3°C - 12.0 mph WNW19.3 kmh WNW 13.9 mph22.4 kmh 30.05 in1017.6 mb 0.00 in0.0 mm 0.00 in0.0 mm 0.13 in3.3 mm
05:44 PM 65.2°F18.4°C 93.7°F34.3°C - 14.2 mph NW22.9 kmh NW 15.9 mph25.6 kmh 30.05 in1017.6 mb 0.00 in0.0 mm 0.00 in0.0 mm 0.13 in3.3 mm
05:49 PM 65.0°F18.3°C 93.6°F34.2°C - 15.7 mph NW25.3 kmh NW 17.4 mph28.0 kmh 30.05 in1017.6 mb 0.00 in0.0 mm 0.00 in0.0 mm 0.13 in3.3 mm
05:54 PM 65.0°F18.3°C 93.6°F34.2°C - 13.6 mph NW21.9 kmh NW 15.0 mph24.1 kmh 30.05 in1017.6 mb 0.00 in0.0 mm 0.00 in0.0 mm 0.13 in3.3 mm
05:59 PM 65.0°F18.3°C 93.6°F34.2°C - 13.4 mph NW21.6 kmh NW 15.5 mph24.9 kmh 30.05 in1017.6 mb 0.00 in0.0 mm 0.00 in0.0 mm 0.13 in3.3 mm
06:04 PM 65.0°F18.3°C 93.6°F34.2°C - 14.9 mph WNW24.0 kmh WNW 17.6 mph28.3 kmh 30.05 in1017.6 mb 0.00 in0.0 mm 0.00 in0.0 mm 0.13 in3.3 mm
06:09 PM 65.0°F18.3°C 93.6°F34.2°C - 15.4 mph WNW24.8 kmh WNW 17.3 mph27.8 kmh 30.05 in1017.6 mb 0.00 in0.0 mm 0.00 in0.0 mm 0.13 in3.3 mm
06:14 PM 64.9°F18.3°C 93.5°F34.2°C - 14.7 mph WNW23.7 kmh WNW 16.2 mph26.1 kmh 30.05 in1017.6 mb 0.00 in0.0 mm 0.00 in0.0 mm 0.13 in3.3 mm
06:19 PM 64.7°F18.2°C 93.2°F34.0°C - 12.7 mph NW20.4 kmh NW 14.1 mph22.7 kmh 30.05 in1017.6 mb 0.00 in0.0 mm 0.00 in0.0 mm 0.13 in3.3 mm
06:24 PM 64.7°F18.2°C 93.2°F34.0°C - 14.2 mph WNW22.9 kmh WNW 15.6 mph25.1 kmh 30.05 in1017.6 mb 0.00 in0.0 mm 0.00 in0.0 mm 0.13 in3.3 mm
06:29 PM 64.7°F18.2°C 93.2°F34.0°C - 13.0 mph WNW20.9 kmh WNW 15.0 mph24.1 kmh 30.05 in1017.6 mb 0.00 in0.0 mm 0.00 in0.0 mm 0.13 in3.3 mm
06:34 PM 64.5°F18.1°C 93.0°F33.9°C - 15.5 mph NW24.9 kmh NW 17.4 mph28.0 kmh 30.05 in1017.6 mb 0.00 in0.0 mm 0.00 in0.0 mm 0.13 in3.3 mm
06:39 PM 64.4°F18.0°C 92.9°F33.8°C - 16.6 mph NW26.7 kmh NW 18.6 mph29.9 kmh 30.05 in1017.6 mb 0.00 in0.0 mm 0.00 in0.0 mm 0.13 in3.3 mm
06:44 PM 64.4°F18.0°C 92.9°F33.8°C - 15.7 mph NW25.3 kmh NW 17.3 mph27.8 kmh 30.06 in1017.9 mb 0.00 in0.0 mm 0.00 in0.0 mm 0.13 in3.3 mm
06:49 PM 64.2°F17.9°C 92.7°F33.7°C - 15.0 mph NW24.1 kmh NW 17.2 mph27.7 kmh 30.06 in1017.9 mb 0.00 in0.0 mm 0.00 in0.0 mm 0.13 in3.3 mm
06:54 PM 64.2°F17.9°C 92.7°F33.7°C - 15.9 mph NW25.6 kmh NW 17.5 mph28.2 kmh 30.06 in1017.9 mb 0.00 in0.0 mm 0.00 in0.0 mm 0.13 in3.3 mm
06:59 PM 64.2°F17.9°C 92.7°F33.7°C - 15.7 mph WNW25.3 kmh WNW 17.8 mph28.6 kmh 30.06 in1017.9 mb 0.00 in0.0 mm 0.00 in0.0 mm 0.13 in3.3 mm
07:04 PM 64.2°F17.9°C 92.7°F33.7°C - 14.4 mph NW23.2 kmh NW 18.1 mph29.1 kmh 30.07 in1018.3 mb 0.00 in0.0 mm 0.00 in0.0 mm 0.13 in3.3 mm
07:09 PM 64.0°F17.8°C 92.3°F33.5°C - 13.9 mph WNW22.4 kmh WNW 17.2 mph27.7 kmh 30.06 in1017.9 mb 0.00 in0.0 mm 0.00 in0.0 mm 0.13 in3.3 mm
07:14 PM 63.9°F17.7°C 92.3°F33.5°C - 13.7 mph WNW22.0 kmh WNW 16.8 mph27.0 kmh 30.07 in1018.3 mb 0.00 in0.0 mm 0.00 in0.0 mm 0.13 in3.3 mm
07:19 PM 63.7°F17.6°C 92.1°F33.4°C - 13.0 mph WNW20.9 kmh WNW 15.4 mph24.8 kmh 30.07 in1018.3 mb 0.00 in0.0 mm 0.00 in0.0 mm 0.13 in3.3 mm
07:24 PM 63.6°F17.6°C 92.0°F33.3°C - 10.8 mph WNW17.4 kmh WNW 12.3 mph19.8 kmh 30.07 in1018.3 mb 0.00 in0.0 mm 0.00 in0.0 mm 0.13 in3.3 mm
07:29 PM 63.5°F17.5°C 91.9°F33.3°C - 10.8 mph WNW17.4 kmh WNW 11.7 mph18.8 kmh 30.07 in1018.3 mb 0.00 in0.0 mm 0.00 in0.0 mm 0.13 in3.3 mm
07:34 PM 63.4°F17.4°C 91.8°F33.2°C - 10.9 mph WNW17.5 kmh WNW 13.1 mph21.1 kmh 30.07 in1018.3 mb 0.00 in0.0 mm 0.00 in0.0 mm 0.13 in3.3 mm
07:39 PM 63.5°F17.5°C 91.8°F33.2°C - 11.2 mph WNW18.0 kmh WNW 13.3 mph21.4 kmh 30.07 in1018.3 mb 0.00 in0.0 mm 0.00 in0.0 mm 0.13 in3.3 mm
07:44 PM 63.4°F17.4°C 91.6°F33.1°C - 12.6 mph WNW20.3 kmh WNW 16.6 mph26.7 kmh 30.07 in1018.3 mb 0.00 in0.0 mm 0.00 in0.0 mm 0.13 in3.3 mm
07:49 PM 63.5°F17.5°C 91.8°F33.2°C - 13.1 mph WNW21.1 kmh WNW 15.5 mph24.9 kmh 30.07 in1018.3 mb 0.00 in0.0 mm 0.00 in0.0 mm 0.13 in3.3 mm
07:54 PM 63.5°F17.5°C 91.8°F33.2°C - 14.2 mph NW22.9 kmh NW 16.0 mph25.7 kmh 30.08 in1018.6 mb 0.00 in0.0 mm 0.00 in0.0 mm 0.13 in3.3 mm
08:00 PM 63.6°F17.6°C 91.9°F33.3°C - 12.0 mph NW19.3 kmh NW 13.5 mph21.7 kmh 30.08 in1018.6 mb 0.00 in0.0 mm 0.00 in0.0 mm 0.13 in3.3 mm
08:04 PM 63.4°F17.4°C 91.8°F33.2°C - 11.1 mph WNW17.9 kmh WNW 12.8 mph20.6 kmh 30.08 in1018.6 mb 0.00 in0.0 mm 0.00 in0.0 mm 0.13 in3.3 mm
08:09 PM 63.2°F17.3°C 91.5°F33.1°C - 10.5 mph WNW16.9 kmh WNW 12.3 mph19.8 kmh 30.08 in1018.6 mb 0.00 in0.0 mm 0.00 in0.0 mm 0.13 in3.3 mm
08:14 PM 63.0°F17.2°C 91.2°F32.9°C - 10.9 mph WNW17.5 kmh WNW 12.5 mph20.1 kmh 30.08 in1018.6 mb 0.00 in0.0 mm 0.00 in0.0 mm 0.13 in3.3 mm
08:19 PM 62.8°F17.1°C 91.0°F32.8°C - 10.3 mph WNW16.6 kmh WNW 11.7 mph18.8 kmh 30.08 in1018.6 mb 0.00 in0.0 mm 0.00 in0.0 mm 0.13 in3.3 mm
08:24 PM 62.7°F17.1°C 91.0°F32.8°C - 9.2 mph WNW14.8 kmh WNW 10.9 mph17.5 kmh 30.09 in1019.0 mb 0.00 in0.0 mm 0.00 in0.0 mm 0.13 in3.3 mm
08:29 PM 62.7°F17.1°C 91.0°F32.8°C - 9.1 mph WNW14.6 kmh WNW 10.3 mph16.6 kmh 30.09 in1019.0 mb 0.00 in0.0 mm 0.00 in0.0 mm 0.13 in3.3 mm
08:34 PM 62.7°F17.1°C 91.0°F32.8°C - 7.7 mph WNW12.4 kmh WNW 8.8 mph14.2 kmh 30.09 in1019.0 mb 0.00 in0.0 mm 0.00 in0.0 mm 0.13 in3.3 mm
08:39 PM 62.7°F17.1°C 91.0°F32.8°C - 7.2 mph WNW11.6 kmh WNW 8.6 mph13.8 kmh 30.09 in1019.0 mb 0.00 in0.0 mm 0.00 in0.0 mm 0.13 in3.3 mm
08:44 PM 62.5°F16.9°C 90.8°F32.7°C - 7.9 mph WNW12.7 kmh WNW 9.1 mph14.6 kmh 30.09 in1019.0 mb 0.00 in0.0 mm 0.00 in0.0 mm 0.13 in3.3 mm
08:49 PM 62.5°F16.9°C 90.8°F32.7°C - 8.2 mph WNW13.2 kmh WNW 9.4 mph15.1 kmh 30.09 in1019.0 mb 0.00 in0.0 mm 0.00 in0.0 mm 0.13 in3.3 mm
08:54 PM 62.4°F16.9°C 90.5°F32.5°C - 7.6 mph W12.2 kmh W 9.6 mph15.4 kmh 30.09 in1019.0 mb 0.00 in0.0 mm 0.00 in0.0 mm 0.13 in3.3 mm
08:59 PM 62.3°F16.8°C 90.5°F32.5°C - 8.6 mph WNW13.8 kmh WNW 12.1 mph19.5 kmh 30.10 in1019.3 mb 0.00 in0.0 mm 0.00 in0.0 mm 0.13 in3.3 mm
09:04 PM 62.3°F16.8°C 90.5°F32.5°C - 8.0 mph W12.9 kmh W 9.4 mph15.1 kmh 30.10 in1019.3 mb 0.00 in0.0 mm 0.00 in0.0 mm 0.13 in3.3 mm
09:09 PM 62.1°F16.7°C 90.3°F32.4°C - 6.0 mph W9.7 kmh W 7.4 mph11.9 kmh 30.10 in1019.3 mb 0.00 in0.0 mm 0.00 in0.0 mm 0.13 in3.3 mm
09:14 PM 61.7°F16.5°C 89.7°F32.1°C - 5.9 mph WSW9.5 kmh WSW 7.6 mph12.2 kmh 30.10 in1019.3 mb 0.00 in0.0 mm 0.00 in0.0 mm 0.13 in3.3 mm
09:19 PM 61.2°F16.2°C 89.2°F31.8°C - 6.9 mph WSW11.1 kmh WSW 8.9 mph14.3 kmh 30.10 in1019.3 mb 0.00 in0.0 mm 0.00 in0.0 mm 0.13 in3.3 mm
09:24 PM 61.0°F16.1°C 89.1°F31.7°C - 5.6 mph W9.0 kmh W 7.2 mph11.6 kmh 30.10 in1019.3 mb 0.00 in0.0 mm 0.00 in0.0 mm 0.13 in3.3 mm
09:29 PM 61.1°F16.2°C 89.2°F31.8°C - 5.8 mph W9.3 kmh W 7.6 mph12.2 kmh 30.10 in1019.3 mb 0.00 in0.0 mm 0.00 in0.0 mm 0.13 in3.3 mm
09:34 PM 61.1°F16.2°C 89.2°F31.8°C - 6.7 mph W10.8 kmh W 8.6 mph13.8 kmh 30.10 in1019.3 mb 0.00 in0.0 mm 0.00 in0.0 mm 0.13 in3.3 mm
09:39 PM 61.0°F16.1°C 89.1°F31.7°C - 6.0 mph W9.7 kmh W 8.1 mph13.0 kmh 30.10 in1019.3 mb 0.00 in0.0 mm 0.00 in0.0 mm 0.13 in3.3 mm
09:44 PM 61.0°F16.1°C 89.1°F31.7°C - 4.9 mph W7.9 kmh W 6.5 mph10.5 kmh 30.10 in1019.3 mb 0.00 in0.0 mm 0.00 in0.0 mm 0.13 in3.3 mm
09:50 PM 61.1°F16.2°C 89.2°F31.8°C - 5.9 mph W9.5 kmh W 8.6 mph13.8 kmh 30.10 in1019.3 mb 0.00 in0.0 mm 0.00 in0.0 mm 0.13 in3.3 mm
09:54 PM 61.0°F16.1°C 89.1°F31.7°C - 7.4 mph W11.9 kmh W 9.9 mph15.9 kmh 30.10 in1019.3 mb 0.00 in0.0 mm 0.00 in0.0 mm 0.13 in3.3 mm
09:59 PM 60.8°F16.0°C 88.7°F31.5°C - 5.6 mph W9.0 kmh W 7.9 mph12.7 kmh 30.11 in1019.6 mb 0.00 in0.0 mm 0.00 in0.0 mm 0.13 in3.3 mm
10:04 PM 60.7°F15.9°C 88.7°F31.5°C - 5.2 mph W8.4 kmh W 6.8 mph10.9 kmh 30.11 in1019.6 mb 0.00 in0.0 mm 0.00 in0.0 mm 0.13 in3.3 mm
10:09 PM 60.5°F15.8°C 88.5°F31.4°C - 5.2 mph WSW8.4 kmh WSW 6.3 mph10.1 kmh 30.11 in1019.6 mb 0.00 in0.0 mm 0.00 in0.0 mm 0.13 in3.3 mm
10:14 PM 60.2°F15.7°C 88.2°F31.2°C - 4.9 mph WSW7.9 kmh WSW 5.8 mph9.3 kmh 30.11 in1019.6 mb 0.00 in0.0 mm 0.00 in0.0 mm 0.13 in3.3 mm
10:20 PM 60.2°F15.7°C 88.2°F31.2°C - 4.9 mph WSW7.9 kmh WSW 6.3 mph10.1 kmh 30.11 in1019.6 mb 0.00 in0.0 mm 0.00 in0.0 mm 0.13 in3.3 mm
10:24 PM 60.2°F15.7°C 88.2°F31.2°C - 4.4 mph WSW7.1 kmh WSW 6.0 mph9.7 kmh 30.11 in1019.6 mb 0.00 in0.0 mm 0.00 in0.0 mm 0.13 in3.3 mm
10:29 PM 60.0°F15.6°C 87.9°F31.1°C - 4.5 mph WSW7.2 kmh WSW 5.9 mph9.5 kmh 30.11 in1019.6 mb 0.00 in0.0 mm 0.00 in0.0 mm 0.13 in3.3 mm
10:34 PM 59.8°F15.4°C 87.7°F30.9°C - 4.9 mph WSW7.9 kmh WSW 6.1 mph9.8 kmh 30.11 in1019.6 mb 0.00 in0.0 mm 0.00 in0.0 mm 0.13 in3.3 mm
10:39 PM 59.9°F15.5°C 87.8°F31.0°C - 5.6 mph WSW9.0 kmh WSW 7.4 mph11.9 kmh 30.11 in1019.6 mb 0.00 in0.0 mm 0.00 in0.0 mm 0.13 in3.3 mm
10:44 PM 60.1°F15.6°C 88.1°F31.2°C - 5.7 mph W9.2 kmh W 8.0 mph12.9 kmh 30.11 in1019.6 mb 0.00 in0.0 mm 0.00 in0.0 mm 0.13 in3.3 mm
10:50 PM 60.2°F15.7°C 88.2°F31.2°C - 6.1 mph W9.8 kmh W 8.0 mph12.9 kmh 30.11 in1019.6 mb 0.00 in0.0 mm 0.00 in0.0 mm 0.13 in3.3 mm
10:54 PM 60.1°F15.6°C 88.1°F31.2°C - 6.0 mph W9.7 kmh W 8.0 mph12.9 kmh 30.11 in1019.6 mb 0.00 in0.0 mm 0.00 in0.0 mm 0.13 in3.3 mm
11:04 PM 60.1°F15.6°C 88.1°F31.2°C - 5.8 mph WSW9.3 kmh WSW 7.4 mph11.9 kmh 30.11 in1019.6 mb 0.00 in0.0 mm 0.00 in0.0 mm 0.00 in0.0 mm
11:09 PM 60.0°F15.6°C 87.8°F31.0°C - 6.2 mph WSW10.0 kmh WSW 8.9 mph14.3 kmh 30.12 in1020.0 mb 0.00 in0.0 mm 0.00 in0.0 mm 0.00 in0.0 mm
11:14 PM 59.8°F15.4°C 87.7°F30.9°C - 4.8 mph WSW7.7 kmh WSW 6.2 mph10.0 kmh 30.12 in1020.0 mb 0.00 in0.0 mm 0.00 in0.0 mm 0.00 in0.0 mm
11:19 PM 59.7°F15.4°C 87.6°F30.9°C - 5.5 mph WSW8.9 kmh WSW 6.9 mph11.1 kmh 30.12 in1020.0 mb 0.00 in0.0 mm 0.00 in0.0 mm 0.00 in0.0 mm
11:24 PM 59.3°F15.2°C 87.1°F30.6°C - 5.7 mph SW9.2 kmh SW 7.2 mph11.6 kmh 30.12 in1020.0 mb 0.00 in0.0 mm 0.00 in0.0 mm 0.00 in0.0 mm
11:29 PM 59.2°F15.1°C 87.0°F30.6°C - 5.8 mph WSW9.3 kmh WSW 7.2 mph11.6 kmh 30.12 in1020.0 mb 0.00 in0.0 mm 0.00 in0.0 mm 0.00 in0.0 mm
11:34 PM 59.2°F15.1°C 87.0°F30.6°C - 5.3 mph WSW8.5 kmh WSW 7.3 mph11.7 kmh 30.12 in1020.0 mb 0.00 in0.0 mm 0.00 in0.0 mm 0.00 in0.0 mm
11:39 PM 59.2°F15.1°C 87.0°F30.6°C - 4.7 mph WSW7.6 kmh WSW 6.2 mph10.0 kmh 30.12 in1020.0 mb 0.00 in0.0 mm 0.00 in0.0 mm 0.00 in0.0 mm
11:44 PM 59.2°F15.1°C 86.9°F30.5°C - 4.7 mph WSW7.6 kmh WSW 5.8 mph9.3 kmh 30.12 in1020.0 mb 0.00 in0.0 mm 0.00 in0.0 mm 0.00 in0.0 mm
11:49 PM 59.1°F15.1°C 86.9°F30.5°C - 4.6 mph WSW7.4 kmh WSW 5.7 mph9.2 kmh 30.12 in1020.0 mb 0.00 in0.0 mm 0.00 in0.0 mm 0.00 in0.0 mm
11:54 PM 59.0°F15.0°C 86.8°F30.4°C - 5.2 mph WSW8.4 kmh WSW 7.2 mph11.6 kmh 30.12 in1020.0 mb 0.00 in0.0 mm 0.00 in0.0 mm 0.00 in0.0 mm
11:59 PM 59.0°F15.0°C 86.8°F30.4°C - 4.6 mph WSW7.4 kmh WSW 6.0 mph9.7 kmh 30.12 in1020.0 mb 0.00 in0.0 mm 0.00 in0.0 mm 0.00 in0.0 mm